createdAt,value
2022-07-26T00:00:15.047Z,57.90
2022-07-26T00:01:13.202Z,58.00
2022-07-26T00:02:16.639Z,57.70
2022-07-26T00:03:13.553Z,57.30
2022-07-26T00:04:13.521Z,57.50
2022-07-26T00:05:13.755Z,57.30
2022-07-26T00:06:14.054Z,57.80
2022-07-26T00:07:13.296Z,58.00
2022-07-26T00:08:13.334Z,57.80
2022-07-26T00:09:13.301Z,57.60
2022-07-26T00:10:15.027Z,57.60
2022-07-26T00:11:13.115Z,58.00
2022-07-26T00:12:12.959Z,58.00
2022-07-26T00:13:13.311Z,57.90
2022-07-26T00:14:13.556Z,58.20
2022-07-26T00:15:13.492Z,58.10
2022-07-26T00:16:13.839Z,57.90
2022-07-26T00:17:13.372Z,57.70
2022-07-26T00:18:13.810Z,57.70
2022-07-26T00:19:14.163Z,57.90
2022-07-26T00:20:13.257Z,58.00
2022-07-26T00:21:13.588Z,58.50
2022-07-26T00:22:13.811Z,58.30
2022-07-26T00:23:13.707Z,58.20
2022-07-26T00:24:13.694Z,58.50
2022-07-26T00:25:13.727Z,58.30
2022-07-26T00:26:13.909Z,58.10
2022-07-26T00:27:12.808Z,58.30
2022-07-26T00:28:14.120Z,58.50
2022-07-26T00:29:13.228Z,58.40
2022-07-26T00:30:13.120Z,58.30
2022-07-26T00:31:18.892Z,58.90
2022-07-26T00:32:13.133Z,58.90
2022-07-26T00:33:13.223Z,58.80
2022-07-26T00:34:13.618Z,58.80
2022-07-26T00:35:13.660Z,58.90
2022-07-26T00:36:13.575Z,58.80
2022-07-26T00:37:19.783Z,59.20
2022-07-26T00:38:13.277Z,59.40
2022-07-26T00:39:13.214Z,59.30
2022-07-26T00:40:13.413Z,59.20
2022-07-26T00:41:13.554Z,59.40
2022-07-26T00:42:13.906Z,60.30
2022-07-26T00:43:12.837Z,60.20
2022-07-26T00:44:14.101Z,60.20
2022-07-26T00:45:13.022Z,60.10
2022-07-26T00:46:13.144Z,60.00
2022-07-26T00:47:13.220Z,60.30
2022-07-26T00:48:13.649Z,60.40
2022-07-26T00:49:14.136Z,60.10
2022-07-26T00:50:13.068Z,60.00
2022-07-26T00:51:13.247Z,60.50
2022-07-26T00:52:13.394Z,60.70
2022-07-26T00:53:13.680Z,61.30
2022-07-26T00:54:14.247Z,61.20
2022-07-26T00:55:13.377Z,61.20
2022-07-26T00:56:14.125Z,61.40
2022-07-26T00:57:13.169Z,61.50
2022-07-26T00:58:13.159Z,61.40
2022-07-26T00:59:13.490Z,61.80
2022-07-26T01:00:13.804Z,61.50
2022-07-26T01:01:14.155Z,61.70
2022-07-26T01:02:13.318Z,62.00
2022-07-26T01:03:13.728Z,61.90
2022-07-26T01:04:14.180Z,62.20
2022-07-26T01:05:13.480Z,62.30
2022-07-26T01:06:13.824Z,62.20
2022-07-26T01:07:14.763Z,62.10
2022-07-26T01:08:13.719Z,62.60
2022-07-26T01:09:13.896Z,63.20
2022-07-26T01:10:14.179Z,63.10
2022-07-26T01:11:13.695Z,62.90
2022-07-26T01:12:13.722Z,63.00
2022-07-26T01:13:13.901Z,63.10
2022-07-26T01:14:13.101Z,63.40
2022-07-26T01:15:13.063Z,63.60
2022-07-26T01:16:12.990Z,63.70
2022-07-26T01:17:13.100Z,63.30
2022-07-26T01:18:13.177Z,63.30
2022-07-26T01:19:13.163Z,63.40
2022-07-26T01:20:13.306Z,63.20
2022-07-26T01:21:14.246Z,63.30
2022-07-26T01:22:14.833Z,63.40
2022-07-26T01:23:13.397Z,63.70
2022-07-26T01:24:13.594Z,63.90
2022-07-26T01:25:14.908Z,64.20
2022-07-26T01:26:12.736Z,64.40
2022-07-26T01:27:13.427Z,64.60
2022-07-26T01:28:20.120Z,64.20
2022-07-26T01:29:13.803Z,64.60
2022-07-26T01:30:13.976Z,64.50
2022-07-26T01:31:13.010Z,64.50
2022-07-26T01:32:13.318Z,64.60
2022-07-26T01:33:13.649Z,64.30
2022-07-26T01:34:13.580Z,64.50
2022-07-26T01:35:13.720Z,64.70
2022-07-26T01:36:13.817Z,64.50
2022-07-26T01:37:13.811Z,64.30
2022-07-26T01:38:14.014Z,64.50
2022-07-26T01:39:12.971Z,64.60
2022-07-26T01:40:12.895Z,64.90
2022-07-26T01:41:12.924Z,65.00
2022-07-26T01:42:13.140Z,65.20
2022-07-26T01:43:13.443Z,65.00
2022-07-26T01:44:13.792Z,65.00
2022-07-26T01:45:13.774Z,65.00
2022-07-26T01:46:13.850Z,65.30
2022-07-26T01:47:12.874Z,65.60
2022-07-26T01:48:15.179Z,65.60
2022-07-26T01:49:13.370Z,65.60
2022-07-26T01:50:13.556Z,65.60
2022-07-26T01:51:13.661Z,65.80
2022-07-26T01:52:14.425Z,66.60
2022-07-26T01:53:14.200Z,66.40
2022-07-26T01:54:13.289Z,66.40
2022-07-26T01:55:13.585Z,66.70
2022-07-26T01:56:13.736Z,66.60
2022-07-26T01:57:14.184Z,66.30
2022-07-26T01:58:13.165Z,66.10
2022-07-26T01:59:13.625Z,66.20
2022-07-26T02:00:14.016Z,66.40
2022-07-26T02:01:13.055Z,66.70
2022-07-26T02:02:13.219Z,66.40
2022-07-26T02:03:13.678Z,66.50
2022-07-26T02:04:13.797Z,66.00
2022-07-26T02:05:13.804Z,66.20
2022-07-26T02:06:14.113Z,66.10
2022-07-26T02:07:13.536Z,66.00
2022-07-26T02:08:13.903Z,66.20
2022-07-26T02:09:13.171Z,66.10
2022-07-26T02:10:13.270Z,65.50
2022-07-26T02:11:13.666Z,65.60
2022-07-26T02:12:13.911Z,65.60
2022-07-26T02:13:19.145Z,65.80
2022-07-26T02:14:13.039Z,65.40
2022-07-26T02:15:13.323Z,65.30
2022-07-26T02:16:13.396Z,65.80
2022-07-26T02:17:13.702Z,65.90
2022-07-26T02:18:14.553Z,65.60
2022-07-26T02:19:13.888Z,65.10
2022-07-26T02:20:12.840Z,65.10
2022-07-26T02:21:13.868Z,65.10
2022-07-26T02:22:13.909Z,65.40
2022-07-26T02:23:13.064Z,65.30
2022-07-26T02:24:13.502Z,65.30
2022-07-26T02:25:13.594Z,65.70
2022-07-26T02:26:13.564Z,65.60
2022-07-26T02:27:13.540Z,65.70
2022-07-26T02:28:13.475Z,65.30
2022-07-26T02:29:13.429Z,64.80
2022-07-26T02:30:13.316Z,64.90
2022-07-26T02:31:15.424Z,65.30
2022-07-26T02:32:13.746Z,65.40
2022-07-26T02:33:14.047Z,65.20
2022-07-26T02:34:13.333Z,65.60
2022-07-26T02:35:13.627Z,65.40
2022-07-26T02:36:13.994Z,65.40
2022-07-26T02:37:12.816Z,65.80
2022-07-26T02:38:13.894Z,66.40
2022-07-26T02:39:13.154Z,66.30
2022-07-26T02:40:18.532Z,66.60
2022-07-26T02:41:13.426Z,66.80
2022-07-26T02:42:13.415Z,66.50
2022-07-26T02:43:13.435Z,66.90
2022-07-26T02:44:13.273Z,66.70
2022-07-26T02:45:13.298Z,66.60
2022-07-26T02:46:13.460Z,66.10
2022-07-26T02:47:13.998Z,65.90
2022-07-26T02:48:13.054Z,66.30
2022-07-26T02:49:13.865Z,66.30
2022-07-26T02:50:12.830Z,66.30
2022-07-26T02:51:13.743Z,66.60
2022-07-26T02:52:13.870Z,66.30
2022-07-26T02:53:13.843Z,66.50
2022-07-26T02:54:13.913Z,65.90
2022-07-26T02:55:13.098Z,65.90
2022-07-26T02:56:13.042Z,66.10
2022-07-26T02:57:13.580Z,66.20
2022-07-26T02:58:13.755Z,66.40
2022-07-26T02:59:13.622Z,66.20
2022-07-26T03:00:13.885Z,65.80
2022-07-26T03:01:13.231Z,65.70
2022-07-26T03:02:14.140Z,65.60
2022-07-26T03:03:13.365Z,65.60
2022-07-26T03:04:13.417Z,65.90
2022-07-26T03:05:13.597Z,66.20
2022-07-26T03:06:13.585Z,66.10
2022-07-26T03:07:14.077Z,66.30
2022-07-26T03:08:13.094Z,66.60
2022-07-26T03:09:13.224Z,66.20
2022-07-26T03:10:13.132Z,66.50
2022-07-26T03:11:13.200Z,66.60
2022-07-26T03:12:13.500Z,66.10
2022-07-26T03:13:18.711Z,66.60
2022-07-26T03:14:13.742Z,66.60
2022-07-26T03:15:15.206Z,66.80
2022-07-26T03:16:13.470Z,66.60
2022-07-26T03:17:13.534Z,66.20
2022-07-26T03:18:13.541Z,65.60
2022-07-26T03:19:13.753Z,66.40
2022-07-26T03:20:13.831Z,65.90
2022-07-26T03:21:13.869Z,66.10
2022-07-26T03:22:13.846Z,66.40
2022-07-26T03:23:13.762Z,66.40
2022-07-26T03:24:13.803Z,66.70
2022-07-26T03:25:13.792Z,67.30
2022-07-26T03:26:14.226Z,67.30
2022-07-26T03:27:13.237Z,66.70
2022-07-26T03:28:17.466Z,66.20
2022-07-26T03:29:13.242Z,66.60
2022-07-26T03:30:13.311Z,67.10
2022-07-26T03:31:13.441Z,68.10
2022-07-26T03:32:13.707Z,69.40
2022-07-26T03:33:13.795Z,70.50
2022-07-26T03:34:14.007Z,71.30
2022-07-26T03:35:13.174Z,71.70
2022-07-26T03:36:15.777Z,71.60
2022-07-26T03:37:13.465Z,71.80
2022-07-26T03:38:13.446Z,72.40
2022-07-26T03:39:13.473Z,72.60
2022-07-26T03:40:13.377Z,72.10
2022-07-26T03:41:13.607Z,72.60
2022-07-26T03:42:12.894Z,72.60
2022-07-26T03:43:13.219Z,72.40
2022-07-26T03:44:13.514Z,72.90
2022-07-26T03:45:13.479Z,72.90
2022-07-26T03:46:13.966Z,72.50
2022-07-26T03:47:13.580Z,72.70
2022-07-26T03:48:13.530Z,72.50
2022-07-26T03:49:17.014Z,72.70
2022-07-26T03:50:13.941Z,72.80
2022-07-26T03:51:13.034Z,72.70
2022-07-26T03:52:12.976Z,73.10
2022-07-26T03:53:13.459Z,73.10
2022-07-26T03:54:13.602Z,72.60
2022-07-26T03:55:13.953Z,72.60
2022-07-26T03:56:12.943Z,72.40
2022-07-26T03:57:13.792Z,72.50
2022-07-26T03:58:14.215Z,72.50
2022-07-26T03:59:13.225Z,72.20
2022-07-26T04:00:13.377Z,72.80
2022-07-26T04:01:13.428Z,72.90
2022-07-26T04:02:13.585Z,72.90
2022-07-26T04:03:13.712Z,73.10
2022-07-26T04:04:14.244Z,73.40
2022-07-26T04:05:13.535Z,73.00
2022-07-26T04:06:13.561Z,73.40
2022-07-26T04:07:13.553Z,73.40
2022-07-26T04:08:12.993Z,73.40
2022-07-26T04:09:13.053Z,73.20
2022-07-26T04:10:12.974Z,73.30
2022-07-26T04:11:13.061Z,73.40
2022-07-26T04:12:13.438Z,73.60
2022-07-26T04:13:13.873Z,73.60
2022-07-26T04:14:13.814Z,74.40
2022-07-26T04:15:14.128Z,74.40
2022-07-26T04:16:13.514Z,74.50
2022-07-26T04:17:13.690Z,75.20
2022-07-26T04:18:14.000Z,75.30
2022-07-26T04:19:13.037Z,75.30
2022-07-26T04:20:13.080Z,75.50
2022-07-26T04:21:13.024Z,76.40
2022-07-26T04:22:12.907Z,76.80
2022-07-26T04:23:13.119Z,78.00
2022-07-26T04:24:13.399Z,78.60
2022-07-26T04:25:13.313Z,79.50
2022-07-26T04:26:13.486Z,80.20
2022-07-26T04:27:13.799Z,80.90
2022-07-26T04:28:14.070Z,82.00
2022-07-26T04:29:13.488Z,81.90
2022-07-26T04:30:15.382Z,82.40
2022-07-26T04:31:14.199Z,82.70
2022-07-26T04:32:13.845Z,82.90
2022-07-26T04:33:13.978Z,82.40
2022-07-26T04:34:13.036Z,83.90
2022-07-26T04:35:12.993Z,84.10
2022-07-26T04:36:12.844Z,84.80
2022-07-26T04:37:14.001Z,85.00
2022-07-26T04:38:12.829Z,85.70
2022-07-26T04:39:13.941Z,86.60
2022-07-26T04:40:12.943Z,86.90
2022-07-26T04:41:13.372Z,87.40
2022-07-26T04:42:13.385Z,86.90
2022-07-26T04:43:18.653Z,86.70
2022-07-26T04:44:13.809Z,86.90
2022-07-26T04:45:13.812Z,87.30
2022-07-26T04:46:13.808Z,87.10
2022-07-26T04:47:13.747Z,87.40
2022-07-26T04:48:13.189Z,88.30
2022-07-26T04:49:13.288Z,88.00
2022-07-26T04:50:13.655Z,88.40
2022-07-26T04:51:13.566Z,90.00
2022-07-26T04:52:13.494Z,90.20
2022-07-26T04:53:13.467Z,90.70
2022-07-26T04:54:13.476Z,90.50
2022-07-26T04:55:13.589Z,90.70
2022-07-26T04:56:13.669Z,91.10
2022-07-26T04:57:13.676Z,91.00
2022-07-26T04:58:13.809Z,90.80
2022-07-26T04:59:16.198Z,91.40
2022-07-26T05:00:22.511Z,91.60
2022-07-26T05:01:13.570Z,91.40
2022-07-26T05:02:14.599Z,91.10
2022-07-26T05:03:13.946Z,91.40
2022-07-26T05:04:13.271Z,91.60
2022-07-26T05:05:13.171Z,90.70
2022-07-26T05:06:13.621Z,91.30
2022-07-26T05:07:13.554Z,91.10
2022-07-26T05:08:13.508Z,91.30
2022-07-26T05:09:13.577Z,91.10
2022-07-26T05:10:13.761Z,91.10
2022-07-26T05:11:13.931Z,90.20
2022-07-26T05:12:13.099Z,89.60
2022-07-26T05:13:13.170Z,89.40
2022-07-26T05:14:13.714Z,89.80
2022-07-26T05:15:14.345Z,89.50
2022-07-26T05:16:13.517Z,89.10
2022-07-26T05:17:13.576Z,89.10
2022-07-26T05:18:13.587Z,89.20
2022-07-26T05:19:13.714Z,90.00
2022-07-26T05:20:14.054Z,89.90
2022-07-26T05:21:13.133Z,90.50
2022-07-26T05:22:14.572Z,90.80
2022-07-26T05:23:13.501Z,91.10
2022-07-26T05:24:13.753Z,90.50
2022-07-26T05:25:13.674Z,90.20
2022-07-26T05:26:13.828Z,89.60
2022-07-26T05:27:13.917Z,90.20
2022-07-26T05:28:12.926Z,90.10
2022-07-26T05:29:12.929Z,89.80
2022-07-26T05:30:12.919Z,89.70
2022-07-26T05:31:13.374Z,89.80
2022-07-26T05:32:13.633Z,89.60
2022-07-26T05:33:16.434Z,89.60
2022-07-26T05:34:14.046Z,89.90
2022-07-26T05:35:13.296Z,89.80
2022-07-26T05:36:13.331Z,89.80
2022-07-26T05:37:13.246Z,89.70
2022-07-26T05:38:13.779Z,89.60
2022-07-26T05:39:16.066Z,89.90
2022-07-26T05:40:13.587Z,89.40
2022-07-26T05:41:13.499Z,90.00
2022-07-26T05:42:13.487Z,89.30
2022-07-26T05:43:13.864Z,89.40
2022-07-26T05:44:14.114Z,89.00
2022-07-26T05:45:13.401Z,88.40
2022-07-26T05:46:13.639Z,88.10
2022-07-26T05:47:14.854Z,88.40
2022-07-26T05:48:13.685Z,87.90
2022-07-26T05:49:13.869Z,87.60
2022-07-26T05:50:13.299Z,87.30
2022-07-26T05:51:13.510Z,87.70
2022-07-26T05:52:15.032Z,88.00
2022-07-26T05:53:13.120Z,87.20
2022-07-26T05:54:13.238Z,87.60
2022-07-26T05:55:13.299Z,87.80
2022-07-26T05:56:13.333Z,87.70
2022-07-26T05:57:13.261Z,86.80
2022-07-26T05:58:13.299Z,87.00
2022-07-26T05:59:13.309Z,86.90
2022-07-26T06:00:13.337Z,86.30
2022-07-26T06:01:13.444Z,85.40
2022-07-26T06:02:13.641Z,86.10
2022-07-26T06:03:13.831Z,86.00
2022-07-26T06:04:14.099Z,86.10
2022-07-26T06:05:13.091Z,85.10
2022-07-26T06:06:13.053Z,85.20
2022-07-26T06:07:13.111Z,84.60
2022-07-26T06:08:13.198Z,85.60
2022-07-26T06:09:13.220Z,84.90
2022-07-26T06:10:13.421Z,85.40
2022-07-26T06:11:13.380Z,85.20
2022-07-26T06:12:13.459Z,86.00
2022-07-26T06:13:13.487Z,85.90
2022-07-26T06:14:14.014Z,85.40
2022-07-26T06:15:15.415Z,85.70
2022-07-26T06:16:13.123Z,84.90
2022-07-26T06:17:14.843Z,84.80
2022-07-26T06:18:14.152Z,84.80
2022-07-26T06:19:13.505Z,84.70
2022-07-26T06:20:13.597Z,84.40
2022-07-26T06:21:13.825Z,84.40
2022-07-26T06:22:13.841Z,84.30
2022-07-26T06:23:12.875Z,84.00
2022-07-26T06:24:14.239Z,83.70
2022-07-26T06:25:13.563Z,83.90
2022-07-26T06:26:13.744Z,84.10
2022-07-26T06:27:13.916Z,84.20
2022-07-26T06:28:13.355Z,84.40
2022-07-26T06:29:13.605Z,84.50
2022-07-26T06:30:13.863Z,84.40
2022-07-26T06:31:14.063Z,83.90
2022-07-26T06:32:13.301Z,84.50
2022-07-26T06:33:13.301Z,84.00
2022-07-26T06:34:13.234Z,85.10
2022-07-26T06:35:13.494Z,84.60
2022-07-26T06:36:13.758Z,84.50
2022-07-26T06:37:14.151Z,84.40
2022-07-26T06:38:13.390Z,84.40
2022-07-26T06:39:18.396Z,84.30
2022-07-26T06:40:13.802Z,84.00
2022-07-26T06:41:13.754Z,83.80
2022-07-26T06:42:13.960Z,84.20
2022-07-26T06:43:13.066Z,84.10
2022-07-26T06:44:13.383Z,83.70
2022-07-26T06:45:13.362Z,82.70
2022-07-26T06:46:13.566Z,83.50
2022-07-26T06:47:13.618Z,82.60
2022-07-26T06:48:13.806Z,82.40
2022-07-26T06:49:14.258Z,82.10
2022-07-26T06:50:13.437Z,81.60
2022-07-26T06:51:13.531Z,81.90
2022-07-26T06:52:13.975Z,81.70
2022-07-26T06:53:13.389Z,81.30
2022-07-26T06:54:13.343Z,81.00
2022-07-26T06:55:13.256Z,81.80
2022-07-26T06:56:13.307Z,81.80
2022-07-26T06:57:13.853Z,81.50
2022-07-26T06:58:13.790Z,81.40
2022-07-26T06:59:13.794Z,81.10
2022-07-26T07:00:14.006Z,80.90
2022-07-26T07:01:13.267Z,80.70
2022-07-26T07:02:13.497Z,81.20
2022-07-26T07:03:13.452Z,81.00
2022-07-26T07:04:13.923Z,80.30
2022-07-26T07:05:13.143Z,80.20
2022-07-26T07:06:13.514Z,79.40
2022-07-26T07:07:13.645Z,80.20
2022-07-26T07:08:13.621Z,79.50
2022-07-26T07:09:13.672Z,79.70
2022-07-26T07:10:12.916Z,79.90
2022-07-26T07:11:14.384Z,80.30
2022-07-26T07:12:14.630Z,79.60
2022-07-26T07:13:14.026Z,80.20
2022-07-26T07:14:12.995Z,79.90
2022-07-26T07:15:12.884Z,79.60
2022-07-26T07:16:13.414Z,79.30
2022-07-26T07:17:20.319Z,79.30
2022-07-26T07:18:13.488Z,78.90
2022-07-26T07:19:13.757Z,78.70
2022-07-26T07:20:14.047Z,78.10
2022-07-26T07:21:13.406Z,77.80
2022-07-26T07:22:13.411Z,78.30
2022-07-26T07:23:13.522Z,78.30
2022-07-26T07:24:13.427Z,78.00
2022-07-26T07:25:14.720Z,77.60
2022-07-26T07:26:12.920Z,77.10
2022-07-26T07:27:13.239Z,77.20
2022-07-26T07:28:14.025Z,76.70
2022-07-26T07:29:12.913Z,77.00
2022-07-26T07:30:12.996Z,75.90
2022-07-26T07:31:13.518Z,77.80
2022-07-26T07:32:18.123Z,78.70
2022-07-26T07:33:22.580Z,78.50
2022-07-26T07:34:14.923Z,77.30
2022-07-26T07:35:13.220Z,77.10
2022-07-26T07:36:13.539Z,76.80
2022-07-26T07:37:13.657Z,76.50
2022-07-26T07:38:14.132Z,76.80
2022-07-26T07:39:17.091Z,76.50
2022-07-26T07:40:13.669Z,76.50
2022-07-26T07:41:13.687Z,76.20
2022-07-26T07:42:13.645Z,76.50
2022-07-26T07:43:13.793Z,76.60
2022-07-26T07:44:14.013Z,76.40
2022-07-26T07:45:13.129Z,75.70
2022-07-26T07:46:13.620Z,75.50
2022-07-26T07:47:13.782Z,76.20
2022-07-26T07:48:14.000Z,75.70
2022-07-26T07:49:13.439Z,75.80
2022-07-26T07:50:13.882Z,75.00
2022-07-26T07:51:12.897Z,74.90
2022-07-26T07:52:12.941Z,74.20
2022-07-26T07:53:12.949Z,74.80
2022-07-26T07:54:12.936Z,74.10
2022-07-26T07:55:36.715Z,74.00
2022-07-26T07:56:13.180Z,72.60
2022-07-26T07:57:13.785Z,72.50
2022-07-26T07:58:13.097Z,71.80
2022-07-26T07:59:13.673Z,71.30
2022-07-26T08:00:13.879Z,71.90
2022-07-26T08:01:13.345Z,70.90
2022-07-26T08:02:13.389Z,71.20
2022-07-26T08:03:13.766Z,71.60
2022-07-26T08:04:14.227Z,71.10
2022-07-26T08:05:14.179Z,71.50
2022-07-26T08:06:13.300Z,71.40
2022-07-26T08:07:13.521Z,71.70
2022-07-26T08:08:12.880Z,71.70
2022-07-26T08:09:13.614Z,71.30
2022-07-26T08:10:13.847Z,71.20
2022-07-26T08:11:14.285Z,70.70
2022-07-26T08:12:13.100Z,70.10
2022-07-26T08:13:13.668Z,69.40
2022-07-26T08:14:13.679Z,69.60
2022-07-26T08:15:13.725Z,69.50
2022-07-26T08:16:14.488Z,69.90
2022-07-26T08:17:13.385Z,69.90
2022-07-26T08:18:15.473Z,70.00
2022-07-26T08:19:15.718Z,69.40
2022-07-26T08:20:15.954Z,68.50
2022-07-26T08:21:13.416Z,68.10
2022-07-26T08:22:14.156Z,67.20
2022-07-26T08:23:13.301Z,67.20
2022-07-26T08:24:13.636Z,67.40
2022-07-26T08:25:13.657Z,67.90
2022-07-26T08:26:13.883Z,67.50
2022-07-26T08:27:13.916Z,67.50
2022-07-26T08:28:30.745Z,67.00
2022-07-26T08:29:14.098Z,66.20
2022-07-26T08:30:13.476Z,65.40
2022-07-26T08:31:13.607Z,66.00
2022-07-26T08:32:13.615Z,66.00
2022-07-26T08:33:13.605Z,67.70
2022-07-26T08:34:14.026Z,67.00
2022-07-26T08:35:17.253Z,67.90
2022-07-26T08:36:13.473Z,67.80
2022-07-26T08:37:17.452Z,68.00
2022-07-26T08:38:13.400Z,66.80
2022-07-26T08:39:13.579Z,67.30
2022-07-26T08:40:13.491Z,66.80
2022-07-26T08:41:13.531Z,67.70
2022-07-26T08:42:13.461Z,67.80
2022-07-26T08:43:13.409Z,68.20
2022-07-26T08:44:13.459Z,68.30
2022-07-26T08:45:13.546Z,68.30
2022-07-26T08:46:14.326Z,67.80
2022-07-26T08:47:13.905Z,67.60
2022-07-26T08:48:17.758Z,67.30
2022-07-26T08:49:14.017Z,68.20
2022-07-26T08:50:13.264Z,67.60
2022-07-26T08:51:13.230Z,67.30
2022-07-26T08:52:13.343Z,66.10
2022-07-26T08:53:13.832Z,65.10
2022-07-26T08:54:14.358Z,64.60
2022-07-26T08:55:13.758Z,65.10
2022-07-26T08:56:13.745Z,64.20
2022-07-26T08:57:13.824Z,63.50
2022-07-26T08:58:13.928Z,62.10
2022-07-26T08:59:18.790Z,62.30
2022-07-26T09:00:13.458Z,61.70
2022-07-26T09:01:13.900Z,60.20
2022-07-26T09:02:13.258Z,60.80
2022-07-26T09:03:13.136Z,60.90
2022-07-26T09:04:13.768Z,60.90
2022-07-26T09:05:13.510Z,62.00
2022-07-26T09:06:13.678Z,62.10
2022-07-26T09:07:14.155Z,62.80
2022-07-26T09:08:13.228Z,63.00
2022-07-26T09:09:13.209Z,63.70
2022-07-26T09:10:13.136Z,64.50
2022-07-26T09:11:13.255Z,64.00
2022-07-26T09:12:13.416Z,63.60
2022-07-26T09:13:13.617Z,64.10
2022-07-26T09:14:13.813Z,64.70
2022-07-26T09:15:13.688Z,65.60
2022-07-26T09:16:13.716Z,66.70
2022-07-26T09:17:14.021Z,68.50
2022-07-26T09:18:13.022Z,69.10
2022-07-26T09:19:13.475Z,70.80
2022-07-26T09:20:13.407Z,71.50
2022-07-26T09:21:13.354Z,72.60
2022-07-26T09:22:13.704Z,72.30
2022-07-26T09:23:13.866Z,73.40
2022-07-26T09:24:13.812Z,73.60
2022-07-26T09:25:13.740Z,73.70
2022-07-26T09:26:13.703Z,74.40
2022-07-26T09:27:15.085Z,75.20
2022-07-26T09:28:13.092Z,74.90
2022-07-26T09:29:13.906Z,76.00
2022-07-26T09:30:13.245Z,75.50
2022-07-26T09:31:13.192Z,75.20
2022-07-26T09:32:15.354Z,74.90
2022-07-26T09:33:13.421Z,74.50
2022-07-26T09:34:13.870Z,72.80
2022-07-26T09:35:45.498Z,72.60
2022-07-26T09:36:14.024Z,72.10
2022-07-26T09:37:13.155Z,71.10
2022-07-26T09:38:13.052Z,68.60
2022-07-26T09:39:13.373Z,67.10
2022-07-26T09:40:13.655Z,64.80
2022-07-26T09:41:13.601Z,62.70
2022-07-26T09:42:27.482Z,61.70
2022-07-26T09:43:15.656Z,59.50
2022-07-26T09:44:13.620Z,62.80
2022-07-26T09:45:13.180Z,64.90
2022-07-26T09:46:13.195Z,62.70
2022-07-26T09:47:13.225Z,64.20
2022-07-26T09:48:13.343Z,63.90
2022-07-26T09:49:13.493Z,64.00
2022-07-26T09:50:14.030Z,64.50
2022-07-26T09:51:13.043Z,64.30
2022-07-26T09:52:13.167Z,65.20
2022-07-26T09:53:13.641Z,65.80
2022-07-26T09:54:14.814Z,66.00
2022-07-26T09:55:13.552Z,65.50
2022-07-26T09:56:13.977Z,65.60
2022-07-26T09:57:13.372Z,66.30
2022-07-26T09:58:13.507Z,66.30
2022-07-26T09:59:13.744Z,66.90
2022-07-26T10:00:13.973Z,67.80
2022-07-26T10:01:13.094Z,68.10
2022-07-26T10:02:13.097Z,68.50
2022-07-26T10:03:13.265Z,68.90
2022-07-26T10:04:13.994Z,67.80
2022-07-26T10:05:13.659Z,68.60
2022-07-26T10:06:13.519Z,68.10
2022-07-26T10:07:14.040Z,67.10
2022-07-26T10:08:13.029Z,67.50
2022-07-26T10:09:13.161Z,67.40
2022-07-26T10:10:13.396Z,66.50
2022-07-26T10:11:13.703Z,65.40
2022-07-26T10:12:13.633Z,65.80
2022-07-26T10:13:13.570Z,65.20
2022-07-26T10:14:13.685Z,65.00
2022-07-26T10:15:13.871Z,64.20
2022-07-26T10:16:13.879Z,63.90
2022-07-26T10:17:13.508Z,63.60
2022-07-26T10:18:16.755Z,63.40
2022-07-26T10:19:13.520Z,61.60
2022-07-26T10:20:17.634Z,58.50
2022-07-26T10:21:13.496Z,56.50
2022-07-26T10:22:13.652Z,55.90
2022-07-26T10:23:13.775Z,55.40
2022-07-26T10:24:14.058Z,55.20
2022-07-26T10:25:13.392Z,54.10
2022-07-26T10:26:13.409Z,54.30
2022-07-26T10:27:13.938Z,55.60
2022-07-26T10:28:12.862Z,56.00
2022-07-26T10:29:14.260Z,56.80
2022-07-26T10:30:13.268Z,57.20
2022-07-26T10:31:15.403Z,57.40
2022-07-26T10:32:13.882Z,57.90
2022-07-26T10:33:13.367Z,57.80
2022-07-26T10:34:13.894Z,56.70
2022-07-26T10:35:13.719Z,56.00
2022-07-26T10:36:14.009Z,56.00
2022-07-26T10:37:13.362Z,56.20
2022-07-26T10:38:13.610Z,56.40
2022-07-26T10:39:13.864Z,56.20
2022-07-26T10:40:14.566Z,55.80
2022-07-26T10:41:13.627Z,56.10
2022-07-26T10:42:13.728Z,55.40
2022-07-26T10:43:37.796Z,56.10
2022-07-26T10:44:14.588Z,56.80
2022-07-26T10:45:13.658Z,57.20
2022-07-26T10:46:13.646Z,56.50
2022-07-26T10:47:13.625Z,57.00
2022-07-26T10:48:13.591Z,57.30
2022-07-26T10:49:13.555Z,57.70
2022-07-26T10:50:14.053Z,58.40
2022-07-26T10:51:13.231Z,59.90
2022-07-26T10:52:13.450Z,60.60
2022-07-26T10:53:13.865Z,62.70
2022-07-26T10:54:15.081Z,65.00
2022-07-26T10:55:14.662Z,65.50
2022-07-26T10:56:14.259Z,66.30
2022-07-26T10:57:13.703Z,67.50
2022-07-26T10:58:13.920Z,68.40
2022-07-26T10:59:12.977Z,68.40
2022-07-26T11:00:12.924Z,68.80
2022-07-26T11:01:13.093Z,68.60
2022-07-26T11:02:13.371Z,68.60
2022-07-26T11:03:15.021Z,68.30
2022-07-26T11:04:13.670Z,69.00
2022-07-26T11:05:13.150Z,68.90
2022-07-26T11:06:13.609Z,70.10
2022-07-26T11:07:13.855Z,69.70
2022-07-26T11:08:13.760Z,70.40
2022-07-26T11:09:13.951Z,70.40
2022-07-26T11:10:13.180Z,70.40
2022-07-26T11:11:13.639Z,69.50
2022-07-26T11:12:14.712Z,69.10
2022-07-26T11:13:13.752Z,70.00
2022-07-26T11:14:14.458Z,70.10
2022-07-26T11:15:13.982Z,69.90
2022-07-26T11:16:22.783Z,69.10
2022-07-26T11:17:13.961Z,68.40
2022-07-26T11:18:13.384Z,68.20
2022-07-26T11:19:13.244Z,67.10
2022-07-26T11:20:13.433Z,66.90
2022-07-26T11:21:13.318Z,66.10
2022-07-26T11:22:14.898Z,65.30
2022-07-26T11:23:13.077Z,65.20
2022-07-26T11:24:13.577Z,65.40
2022-07-26T11:25:13.816Z,65.10
2022-07-26T11:26:13.799Z,63.30
2022-07-26T11:27:14.136Z,62.60
2022-07-26T11:28:13.440Z,63.20
2022-07-26T11:29:16.959Z,63.20
2022-07-26T11:30:13.744Z,62.60
2022-07-26T11:31:15.314Z,62.00
2022-07-26T11:32:17.889Z,63.10
2022-07-26T11:33:13.216Z,62.80
2022-07-26T11:34:13.604Z,61.20
2022-07-26T11:35:13.178Z,62.70
2022-07-26T11:36:13.735Z,63.20
2022-07-26T11:37:13.570Z,62.50
2022-07-26T11:38:14.039Z,61.80
2022-07-26T11:39:13.120Z,60.90
2022-07-26T11:40:13.317Z,62.20
2022-07-26T11:41:14.428Z,62.80
2022-07-26T11:42:13.654Z,63.10
2022-07-26T11:43:13.719Z,64.30
2022-07-26T11:44:14.073Z,64.00
2022-07-26T11:45:13.803Z,63.80
2022-07-26T11:46:14.052Z,62.80
2022-07-26T11:47:13.187Z,62.70
2022-07-26T11:48:13.171Z,62.90
2022-07-26T11:49:13.576Z,63.90
2022-07-26T11:50:18.630Z,65.70
2022-07-26T11:51:13.501Z,64.70
2022-07-26T11:52:13.789Z,64.70
2022-07-26T11:53:13.768Z,64.10
2022-07-26T11:54:14.017Z,64.10
2022-07-26T11:55:13.599Z,63.80
2022-07-26T11:56:13.631Z,63.50
2022-07-26T11:57:13.544Z,63.90
2022-07-26T11:58:13.519Z,63.00
2022-07-26T11:59:15.271Z,59.90
2022-07-26T12:00:13.447Z,60.80
2022-07-26T12:01:13.683Z,64.70
2022-07-26T12:02:20.268Z,64.60
2022-07-26T12:03:13.439Z,65.10
2022-07-26T12:04:14.145Z,66.60
2022-07-26T12:05:14.018Z,65.90
2022-07-26T12:06:13.171Z,64.90
2022-07-26T12:07:13.247Z,63.10
2022-07-26T12:08:13.293Z,62.60
2022-07-26T12:09:13.416Z,62.10
2022-07-26T12:10:13.370Z,62.40
2022-07-26T12:11:13.729Z,62.70
2022-07-26T12:12:13.587Z,59.90
2022-07-26T12:13:13.943Z,62.00
2022-07-26T12:14:18.335Z,63.10
2022-07-26T12:15:13.679Z,62.50
2022-07-26T12:16:14.101Z,64.20
2022-07-26T12:17:14.389Z,63.50
2022-07-26T12:18:13.615Z,63.80
2022-07-26T12:19:13.700Z,62.40
2022-07-26T12:20:13.780Z,63.20
2022-07-26T12:21:13.598Z,62.40
2022-07-26T12:22:15.448Z,62.10
2022-07-26T12:23:13.533Z,61.30
2022-07-26T12:24:14.009Z,60.20
2022-07-26T12:25:13.317Z,58.40
2022-07-26T12:26:13.418Z,59.40
2022-07-26T12:27:13.999Z,59.80
2022-07-26T12:28:12.945Z,60.00
2022-07-26T12:29:13.060Z,58.40
2022-07-26T12:30:14.092Z,58.40
2022-07-26T12:31:16.010Z,60.80
2022-07-26T12:32:13.417Z,61.00
2022-07-26T12:33:14.812Z,57.80
2022-07-26T12:34:13.202Z,56.30
2022-07-26T12:35:13.595Z,58.00
2022-07-26T12:36:13.912Z,58.10
2022-07-26T12:37:12.907Z,54.70
2022-07-26T12:38:22.654Z,54.70
2022-07-26T12:39:13.700Z,54.80
2022-07-26T12:40:13.890Z,55.10
2022-07-26T12:41:13.858Z,52.80
2022-07-26T12:42:15.869Z,51.40
2022-07-26T12:43:13.362Z,50.50
2022-07-26T12:44:15.845Z,52.10
2022-07-26T12:45:13.267Z,53.80
2022-07-26T12:46:13.872Z,53.70
2022-07-26T12:47:14.309Z,55.40
2022-07-26T12:48:13.406Z,52.10
2022-07-26T12:49:13.440Z,54.00
2022-07-26T12:50:26.046Z,55.70
2022-07-26T12:51:18.466Z,53.40
2022-07-26T12:52:13.072Z,52.20